sensor_id;sensor_type;location;lat;lon;timestamp;P1;durP1;ratioP1;P2;durP2;ratioP2
34035;SDS011;63481;52.588;22.472;2022-12-05T00:00:51;27.37;;;17.07;;
34035;SDS011;63481;52.588;22.472;2022-12-05T00:01:42;33.10;;;23.60;;
34035;SDS011;63481;52.588;22.472;2022-12-05T00:03:23;31.40;;;19.12;;
34035;SDS011;63481;52.588;22.472;2022-12-05T00:04:13;30.60;;;19.00;;
34035;SDS011;63481;52.588;22.472;2022-12-05T00:05:53;29.72;;;16.90;;
34035;SDS011;63481;52.588;22.472;2022-12-05T00:06:45;28.30;;;16.97;;
34035;SDS011;63481;52.588;22.472;2022-12-05T00:07:36;30.40;;;18.40;;
34035;SDS011;63481;52.588;22.472;2022-12-05T00:08:29;30.80;;;17.67;;
34035;SDS011;63481;52.588;22.472;2022-12-05T00:09:18;30.63;;;20.30;;
34035;SDS011;63481;52.588;22.472;2022-12-05T00:10:08;29.80;;;17.75;;
34035;SDS011;63481;52.588;22.472;2022-12-05T00:10:59;33.83;;;19.57;;
34035;SDS011;63481;52.588;22.472;2022-12-05T00:11:49;28.00;;;16.20;;
34035;SDS011;63481;52.588;22.472;2022-12-05T00:13:30;31.73;;;17.65;;
34035;SDS011;63481;52.588;22.472;2022-12-05T00:14:20;31.77;;;18.90;;
34035;SDS011;63481;52.588;22.472;2022-12-05T00:15:11;31.17;;;16.80;;
34035;SDS011;63481;52.588;22.472;2022-12-05T00:16:01;28.73;;;17.27;;
34035;SDS011;63481;52.588;22.472;2022-12-05T00:16:55;36.83;;;19.00;;
34035;SDS011;63481;52.588;22.472;2022-12-05T00:17:45;32.13;;;20.07;;
34035;SDS011;63481;52.588;22.472;2022-12-05T00:18:37;34.77;;;19.73;;
34035;SDS011;63481;52.588;22.472;2022-12-05T00:19:28;33.80;;;20.17;;
34035;SDS011;63481;52.588;22.472;2022-12-05T00:20:22;32.43;;;19.43;;
34035;SDS011;63481;52.588;22.472;2022-12-05T00:21:13;32.40;;;20.02;;
34035;SDS011;63481;52.588;22.472;2022-12-05T00:22:05;31.20;;;17.47;;
34035;SDS011;63481;52.588;22.472;2022-12-05T00:22:55;33.33;;;16.90;;
34035;SDS011;63481;52.588;22.472;2022-12-05T00:23:46;30.55;;;15.90;;
34035;SDS011;63481;52.588;22.472;2022-12-05T00:24:36;31.40;;;16.60;;
34035;SDS011;63481;52.588;22.472;2022-12-05T00:25:27;33.03;;;18.27;;
34035;SDS011;63481;52.588;22.472;2022-12-05T00:26:18;31.35;;;18.57;;
34035;SDS011;63481;52.588;22.472;2022-12-05T00:27:10;29.87;;;17.17;;
34035;SDS011;63481;52.588;22.472;2022-12-05T00:28:00;28.98;;;17.12;;
34035;SDS011;63481;52.588;22.472;2022-12-05T00:28:53;32.27;;;18.00;;
34035;SDS011;63481;52.588;22.472;2022-12-05T00:29:44;28.60;;;17.30;;
34035;SDS011;63481;52.588;22.472;2022-12-05T00:30:35;32.35;;;17.98;;
34035;SDS011;63481;52.588;22.472;2022-12-05T00:31:28;32.20;;;17.70;;
34035;SDS011;63481;52.588;22.472;2022-12-05T00:32:21;31.75;;;18.05;;
34035;SDS011;63481;52.588;22.472;2022-12-05T00:33:10;28.67;;;16.07;;
34035;SDS011;63481;52.588;22.472;2022-12-05T00:34:01;30.00;;;17.52;;
34035;SDS011;63481;52.588;22.472;2022-12-05T00:34:52;31.43;;;18.37;;
34035;SDS011;63481;52.588;22.472;2022-12-05T00:35:42;32.38;;;17.75;;
34035;SDS011;63481;52.588;22.472;2022-12-05T00:36:33;31.07;;;16.80;;
34035;SDS011;63481;52.588;22.472;2022-12-05T00:37:24;30.90;;;18.83;;
34035;SDS011;63481;52.588;22.472;2022-12-05T00:38:14;30.72;;;18.42;;
34035;SDS011;63481;52.588;22.472;2022-12-05T00:39:06;29.10;;;17.80;;
34035;SDS011;63481;52.588;22.472;2022-12-05T00:39:58;32.07;;;18.13;;
34035;SDS011;63481;52.588;22.472;2022-12-05T00:40:48;30.68;;;18.87;;
34035;SDS011;63481;52.588;22.472;2022-12-05T00:41:38;27.52;;;15.30;;
34035;SDS011;63481;52.588;22.472;2022-12-05T00:42:28;31.27;;;18.73;;
34035;SDS011;63481;52.588;22.472;2022-12-05T00:43:21;33.30;;;16.95;;
34035;SDS011;63481;52.588;22.472;2022-12-05T00:44:10;27.97;;;17.73;;
34035;SDS011;63481;52.588;22.472;2022-12-05T00:45:02;30.23;;;19.60;;
34035;SDS011;63481;52.588;22.472;2022-12-05T00:45:52;35.67;;;20.57;;
34035;SDS011;63481;52.588;22.472;2022-12-05T00:46:42;27.50;;;17.73;;
34035;SDS011;63481;52.588;22.472;2022-12-05T00:47:34;31.50;;;20.32;;
34035;SDS011;63481;52.588;22.472;2022-12-05T00:48:24;29.23;;;16.60;;
34035;SDS011;63481;52.588;22.472;2022-12-05T00:49:14;28.98;;;17.67;;
34035;SDS011;63481;52.588;22.472;2022-12-05T00:50:05;28.47;;;18.52;;
34035;SDS011;63481;52.588;22.472;2022-12-05T00:51:00;28.03;;;15.90;;
34035;SDS011;63481;52.588;22.472;2022-12-05T00:51:52;31.73;;;16.47;;
34035;SDS011;63481;52.588;22.472;2022-12-05T00:52:42;29.80;;;17.60;;
34035;SDS011;63481;52.588;22.472;2022-12-05T00:53:33;30.20;;;19.00;;
34035;SDS011;63481;52.588;22.472;2022-12-05T00:54:23;28.93;;;17.63;;
34035;SDS011;63481;52.588;22.472;2022-12-05T00:55:13;31.37;;;17.00;;
34035;SDS011;63481;52.588;22.472;2022-12-05T00:56:04;29.45;;;19.70;;
34035;SDS011;63481;52.588;22.472;2022-12-05T00:56:56;29.27;;;17.13;;
34035;SDS011;63481;52.588;22.472;2022-12-05T00:57:46;28.47;;;17.55;;
34035;SDS011;63481;52.588;22.472;2022-12-05T00:58:36;28.00;;;16.37;;
34035;SDS011;63481;52.588;22.472;2022-12-05T00:59:26;26.97;;;18.40;;
34035;SDS011;63481;52.588;22.472;2022-12-05T01:00:18;27.83;;;17.57;;
34035;SDS011;63481;52.588;22.472;2022-12-05T01:01:10;26.67;;;17.23;;
34035;SDS011;63481;52.588;22.472;2022-12-05T01:02:02;30.63;;;18.33;;
34035;SDS011;63481;52.588;22.472;2022-12-05T01:02:55;28.13;;;15.53;;
34035;SDS011;63481;52.588;22.472;2022-12-05T01:03:45;27.48;;;16.60;;
34035;SDS011;63481;52.588;22.472;2022-12-05T01:04:36;26.57;;;16.93;;
34035;SDS011;63481;52.588;22.472;2022-12-05T01:05:26;26.77;;;16.40;;
34035;SDS011;63481;52.588;22.472;2022-12-05T01:06:17;26.23;;;14.85;;
34035;SDS011;63481;52.588;22.472;2022-12-05T01:07:58;28.73;;;18.93;;
34035;SDS011;63481;52.588;22.472;2022-12-05T01:08:49;29.73;;;17.07;;
34035;SDS011;63481;52.588;22.472;2022-12-05T01:09:40;26.90;;;17.53;;
34035;SDS011;63481;52.588;22.472;2022-12-05T01:10:30;28.10;;;17.57;;
34035;SDS011;63481;52.588;22.472;2022-12-05T01:11:20;27.15;;;16.20;;
34035;SDS011;63481;52.588;22.472;2022-12-05T01:12:14;27.67;;;17.00;;
34035;SDS011;63481;52.588;22.472;2022-12-05T01:13:04;27.55;;;17.07;;
34035;SDS011;63481;52.588;22.472;2022-12-05T01:13:54;27.60;;;15.68;;
34035;SDS011;63481;52.588;22.472;2022-12-05T01:14:45;29.23;;;15.23;;
34035;SDS011;63481;52.588;22.472;2022-12-05T01:15:36;30.08;;;17.70;;
34035;SDS011;63481;52.588;22.472;2022-12-05T01:16:27;26.97;;;18.00;;
34035;SDS011;63481;52.588;22.472;2022-12-05T01:17:19;25.83;;;14.37;;
34035;SDS011;63481;52.588;22.472;2022-12-05T01:19:01;25.17;;;13.55;;
34035;SDS011;63481;52.588;22.472;2022-12-05T01:19:53;23.93;;;14.63;;
34035;SDS011;63481;52.588;22.472;2022-12-05T01:20:44;21.95;;;12.93;;
34035;SDS011;63481;52.588;22.472;2022-12-05T01:21:37;23.00;;;13.77;;
34035;SDS011;63481;52.588;22.472;2022-12-05T01:22:27;24.57;;;18.17;;
34035;SDS011;63481;52.588;22.472;2022-12-05T01:24:08;27.73;;;15.58;;
34035;SDS011;63481;52.588;22.472;2022-12-05T01:24:59;24.53;;;17.03;;
34035;SDS011;63481;52.588;22.472;2022-12-05T01:26:43;24.73;;;14.83;;
34035;SDS011;63481;52.588;22.472;2022-12-05T01:27:34;26.77;;;16.57;;
34035;SDS011;63481;52.588;22.472;2022-12-05T01:28:24;27.75;;;18.90;;
34035;SDS011;63481;52.588;22.472;2022-12-05T01:29:17;25.27;;;17.27;;
34035;SDS011;63481;52.588;22.472;2022-12-05T01:30:09;23.97;;;15.60;;
34035;SDS011;63481;52.588;22.472;2022-12-05T01:31:03;24.67;;;16.60;;
34035;SDS011;63481;52.588;22.472;2022-12-05T01:31:56;26.70;;;19.00;;
34035;SDS011;63481;52.588;22.472;2022-12-05T01:32:46;24.35;;;15.85;;
34035;SDS011;63481;52.588;22.472;2022-12-05T01:33:36;23.85;;;16.52;;
34035;SDS011;63481;52.588;22.472;2022-12-05T01:34:26;25.97;;;17.52;;
34035;SDS011;63481;52.588;22.472;2022-12-05T01:35:16;24.45;;;15.05;;
34035;SDS011;63481;52.588;22.472;2022-12-05T01:36:08;27.15;;;15.13;;
34035;SDS011;63481;52.588;22.472;2022-12-05T01:37:00;27.73;;;16.10;;
34035;SDS011;63481;52.588;22.472;2022-12-05T01:37:50;24.70;;;17.27;;
34035;SDS011;63481;52.588;22.472;2022-12-05T01:38:40;23.87;;;15.48;;
34035;SDS011;63481;52.588;22.472;2022-12-05T01:39:31;22.83;;;14.93;;
34035;SDS011;63481;52.588;22.472;2022-12-05T01:40:21;24.98;;;17.00;;
34035;SDS011;63481;52.588;22.472;2022-12-05T01:41:16;26.62;;;18.00;;
34035;SDS011;63481;52.588;22.472;2022-12-05T01:42:08;22.10;;;14.90;;
34035;SDS011;63481;52.588;22.472;2022-12-05T01:43:02;23.93;;;17.23;;
34035;SDS011;63481;52.588;22.472;2022-12-05T01:43:56;26.50;;;17.83;;
34035;SDS011;63481;52.588;22.472;2022-12-05T01:45:48;24.60;;;15.23;;
34035;SDS011;63481;52.588;22.472;2022-12-05T01:46:42;25.53;;;14.93;;
34035;SDS011;63481;52.588;22.472;2022-12-05T01:47:32;25.17;;;15.93;;
34035;SDS011;63481;52.588;22.472;2022-12-05T01:48:29;27.03;;;18.33;;
34035;SDS011;63481;52.588;22.472;2022-12-05T01:49:28;24.43;;;16.37;;
34035;SDS011;63481;52.588;22.472;2022-12-05T01:50:29;25.37;;;16.97;;
34035;SDS011;63481;52.588;22.472;2022-12-05T01:51:21;26.33;;;17.97;;
34035;SDS011;63481;52.588;22.472;2022-12-05T01:52:13;24.65;;;16.25;;
34035;SDS011;63481;52.588;22.472;2022-12-05T01:53:09;24.83;;;16.07;;
34035;SDS011;63481;52.588;22.472;2022-12-05T01:54:50;21.62;;;13.28;;
34035;SDS011;63481;52.588;22.472;2022-12-05T01:55:43;25.53;;;18.00;;
34035;SDS011;63481;52.588;22.472;2022-12-05T01:56:35;25.07;;;14.30;;
34035;SDS011;63481;52.588;22.472;2022-12-05T01:57:26;24.73;;;17.30;;
34035;SDS011;63481;52.588;22.472;2022-12-05T01:59:08;22.75;;;14.70;;
34035;SDS011;63481;52.588;22.472;2022-12-05T02:00:02;23.80;;;14.97;;
34035;SDS011;63481;52.588;22.472;2022-12-05T02:00:54;24.53;;;16.50;;
34035;SDS011;63481;52.588;22.472;2022-12-05T02:01:45;27.07;;;17.23;;
34035;SDS011;63481;52.588;22.472;2022-12-05T02:02:35;24.05;;;14.65;;
34035;SDS011;63481;52.588;22.472;2022-12-05T02:03:25;23.25;;;13.93;;
34035;SDS011;63481;52.588;22.472;2022-12-05T02:04:15;21.93;;;15.10;;
34035;SDS011;63481;52.588;22.472;2022-12-05T02:05:08;26.83;;;16.23;;
34035;SDS011;63481;52.588;22.472;2022-12-05T02:06:09;26.02;;;15.72;;
34035;SDS011;63481;52.588;22.472;2022-12-05T02:06:59;23.87;;;14.80;;
34035;SDS011;63481;52.588;22.472;2022-12-05T02:07:49;24.90;;;15.40;;
34035;SDS011;63481;52.588;22.472;2022-12-05T02:08:40;24.70;;;16.20;;
34035;SDS011;63481;52.588;22.472;2022-12-05T02:09:31;25.90;;;14.77;;
34035;SDS011;63481;52.588;22.472;2022-12-05T02:10:21;22.93;;;17.05;;
34035;SDS011;63481;52.588;22.472;2022-12-05T02:11:12;23.93;;;14.63;;
34035;SDS011;63481;52.588;22.472;2022-12-05T02:12:03;25.10;;;15.90;;
34035;SDS011;63481;52.588;22.472;2022-12-05T02:12:53;23.12;;;14.73;;
34035;SDS011;63481;52.588;22.472;2022-12-05T02:15:05;23.17;;;16.00;;
34035;SDS011;63481;52.588;22.472;2022-12-05T02:15:55;22.83;;;14.67;;
34035;SDS011;63481;52.588;22.472;2022-12-05T02:16:59;25.57;;;14.60;;
34035;SDS011;63481;52.588;22.472;2022-12-05T02:20:46;23.57;;;15.17;;
34035;SDS011;63481;52.588;22.472;2022-12-05T02:23:51;24.50;;;15.07;;
34035;SDS011;63481;52.588;22.472;2022-12-05T02:25:04;23.40;;;14.07;;
34035;SDS011;63481;52.588;22.472;2022-12-05T02:28:30;23.85;;;13.53;;
34035;SDS011;63481;52.588;22.472;2022-12-05T02:30:43;25.85;;;13.95;;
34035;SDS011;63481;52.588;22.472;2022-12-05T02:33:00;23.70;;;16.40;;
34035;SDS011;63481;52.588;22.472;2022-12-05T02:33:59;21.70;;;14.80;;
34035;SDS011;63481;52.588;22.472;2022-12-05T02:36:06;23.90;;;13.60;;
34035;SDS011;63481;52.588;22.472;2022-12-05T02:38:15;21.53;;;14.93;;
34035;SDS011;63481;52.588;22.472;2022-12-05T02:39:06;20.90;;;12.87;;
34035;SDS011;63481;52.588;22.472;2022-12-05T02:40:07;20.73;;;13.33;;
34035;SDS011;63481;52.588;22.472;2022-12-05T02:42:22;22.30;;;15.57;;
34035;SDS011;63481;52.588;22.472;2022-12-05T02:43:18;22.50;;;14.63;;
34035;SDS011;63481;52.588;22.472;2022-12-05T02:44:12;24.17;;;15.13;;
34035;SDS011;63481;52.588;22.472;2022-12-05T02:45:19;21.93;;;13.72;;
34035;SDS011;63481;52.588;22.472;2022-12-05T02:46:13;22.97;;;15.80;;
34035;SDS011;63481;52.588;22.472;2022-12-05T02:47:06;24.30;;;17.07;;
34035;SDS011;63481;52.588;22.472;2022-12-05T02:47:58;22.47;;;15.40;;
34035;SDS011;63481;52.588;22.472;2022-12-05T02:48:52;22.33;;;15.53;;
34035;SDS011;63481;52.588;22.472;2022-12-05T02:49:43;23.60;;;13.30;;
34035;SDS011;63481;52.588;22.472;2022-12-05T02:50:35;23.65;;;14.15;;
34035;SDS011;63481;52.588;22.472;2022-12-05T02:51:28;26.10;;;13.47;;
34035;SDS011;63481;52.588;22.472;2022-12-05T02:52:21;23.03;;;16.47;;
34035;SDS011;63481;52.588;22.472;2022-12-05T02:53:14;22.20;;;15.13;;
34035;SDS011;63481;52.588;22.472;2022-12-05T02:54:07;22.27;;;14.10;;
34035;SDS011;63481;52.588;22.472;2022-12-05T02:54:59;22.13;;;13.73;;
34035;SDS011;63481;52.588;22.472;2022-12-05T02:55:52;22.53;;;13.40;;
34035;SDS011;63481;52.588;22.472;2022-12-05T02:56:43;22.40;;;15.13;;
34035;SDS011;63481;52.588;22.472;2022-12-05T02:57:35;21.77;;;13.90;;
34035;SDS011;63481;52.588;22.472;2022-12-05T02:58:30;22.13;;;15.20;;
34035;SDS011;63481;52.588;22.472;2022-12-05T02:59:23;23.47;;;14.77;;
34035;SDS011;63481;52.588;22.472;2022-12-05T03:00:13;23.40;;;14.18;;
34035;SDS011;63481;52.588;22.472;2022-12-05T03:01:04;24.83;;;14.67;;
34035;SDS011;63481;52.588;22.472;2022-12-05T03:01:55;22.90;;;14.40;;
34035;SDS011;63481;52.588;22.472;2022-12-05T03:03:36;25.97;;;16.50;;
34035;SDS011;63481;52.588;22.472;2022-12-05T03:04:27;22.13;;;13.50;;
34035;SDS011;63481;52.588;22.472;2022-12-05T03:05:30;22.37;;;14.30;;
34035;SDS011;63481;52.588;22.472;2022-12-05T03:06:31;20.90;;;14.03;;
34035;SDS011;63481;52.588;22.472;2022-12-05T03:07:24;26.07;;;15.87;;
34035;SDS011;63481;52.588;22.472;2022-12-05T03:08:19;23.73;;;15.93;;
34035;SDS011;63481;52.588;22.472;2022-12-05T03:10:14;22.07;;;14.50;;
34035;SDS011;63481;52.588;22.472;2022-12-05T03:11:07;24.13;;;16.57;;
34035;SDS011;63481;52.588;22.472;2022-12-05T03:12:05;23.27;;;15.70;;
34035;SDS011;63481;52.588;22.472;2022-12-05T03:13:10;23.43;;;15.57;;
34035;SDS011;63481;52.588;22.472;2022-12-05T03:14:02;25.50;;;14.07;;
34035;SDS011;63481;52.588;22.472;2022-12-05T03:15:00;23.63;;;14.23;;
34035;SDS011;63481;52.588;22.472;2022-12-05T03:15:56;23.63;;;14.97;;
34035;SDS011;63481;52.588;22.472;2022-12-05T03:16:52;23.27;;;14.20;;
34035;SDS011;63481;52.588;22.472;2022-12-05T03:17:52;21.43;;;14.03;;
34035;SDS011;63481;52.588;22.472;2022-12-05T03:18:43;22.90;;;15.03;;
34035;SDS011;63481;52.588;22.472;2022-12-05T03:19:54;24.77;;;15.70;;
34035;SDS011;63481;52.588;22.472;2022-12-05T03:20:46;26.17;;;15.60;;
34035;SDS011;63481;52.588;22.472;2022-12-05T03:21:44;23.93;;;15.13;;
34035;SDS011;63481;52.588;22.472;2022-12-05T03:22:56;20.53;;;12.27;;
34035;SDS011;63481;52.588;22.472;2022-12-05T03:24:03;21.77;;;15.67;;
34035;SDS011;63481;52.588;22.472;2022-12-05T03:24:58;21.80;;;14.33;;
34035;SDS011;63481;52.588;22.472;2022-12-05T03:26:49;21.00;;;13.67;;
34035;SDS011;63481;52.588;22.472;2022-12-05T03:29:38;21.23;;;14.93;;
34035;SDS011;63481;52.588;22.472;2022-12-05T03:30:34;20.87;;;14.13;;
34035;SDS011;63481;52.588;22.472;2022-12-05T03:31:47;22.67;;;14.93;;
34035;SDS011;63481;52.588;22.472;2022-12-05T03:33:04;21.77;;;16.23;;
34035;SDS011;63481;52.588;22.472;2022-12-05T03:33:56;19.62;;;12.92;;
34035;SDS011;63481;52.588;22.472;2022-12-05T03:35:06;24.30;;;14.68;;
34035;SDS011;63481;52.588;22.472;2022-12-05T03:37:06;21.20;;;13.40;;
34035;SDS011;63481;52.588;22.472;2022-12-05T03:38:05;20.30;;;13.67;;
34035;SDS011;63481;52.588;22.472;2022-12-05T03:38:57;20.63;;;13.70;;
34035;SDS011;63481;52.588;22.472;2022-12-05T03:39:53;24.53;;;15.07;;
34035;SDS011;63481;52.588;22.472;2022-12-05T03:41:57;22.17;;;14.25;;
34035;SDS011;63481;52.588;22.472;2022-12-05T03:43:21;21.60;;;15.93;;
34035;SDS011;63481;52.588;22.472;2022-12-05T03:44:18;21.67;;;14.20;;
34035;SDS011;63481;52.588;22.472;2022-12-05T03:45:10;21.67;;;14.23;;
34035;SDS011;63481;52.588;22.472;2022-12-05T03:46:23;23.45;;;15.10;;
34035;SDS011;63481;52.588;22.472;2022-12-05T03:47:24;20.50;;;15.83;;
34035;SDS011;63481;52.588;22.472;2022-12-05T03:49:11;21.02;;;15.88;;
34035;SDS011;63481;52.588;22.472;2022-12-05T03:50:04;22.40;;;16.93;;
34035;SDS011;63481;52.588;22.472;2022-12-05T03:50:56;22.87;;;16.93;;
34035;SDS011;63481;52.588;22.472;2022-12-05T03:51:52;18.83;;;11.60;;
34035;SDS011;63481;52.588;22.472;2022-12-05T03:53:04;20.60;;;12.58;;
34035;SDS011;63481;52.588;22.472;2022-12-05T03:54:02;21.75;;;13.05;;
34035;SDS011;63481;52.588;22.472;2022-12-05T03:54:52;23.12;;;14.28;;
34035;SDS011;63481;52.588;22.472;2022-12-05T03:55:44;20.52;;;14.45;;
34035;SDS011;63481;52.588;22.472;2022-12-05T03:56:40;19.32;;;13.80;;
34035;SDS011;63481;52.588;22.472;2022-12-05T03:57:50;21.07;;;14.15;;
34035;SDS011;63481;52.588;22.472;2022-12-05T03:58:42;20.23;;;13.53;;
34035;SDS011;63481;52.588;22.472;2022-12-05T03:59:33;21.30;;;14.10;;
34035;SDS011;63481;52.588;22.472;2022-12-05T04:00:25;21.82;;;15.08;;
34035;SDS011;63481;52.588;22.472;2022-12-05T04:01:19;21.63;;;14.70;;
34035;SDS011;63481;52.588;22.472;2022-12-05T04:02:17;20.25;;;14.38;;
34035;SDS011;63481;52.588;22.472;2022-12-05T04:03:20;21.93;;;14.18;;
34035;SDS011;63481;52.588;22.472;2022-12-05T04:04:14;21.93;;;13.03;;
34035;SDS011;63481;52.588;22.472;2022-12-05T04:05:29;19.45;;;11.90;;
34035;SDS011;63481;52.588;22.472;2022-12-05T04:06:23;22.23;;;12.80;;
34035;SDS011;63481;52.588;22.472;2022-12-05T04:07:15;23.47;;;12.85;;
34035;SDS011;63481;52.588;22.472;2022-12-05T04:08:09;21.10;;;13.90;;
34035;SDS011;63481;52.588;22.472;2022-12-05T04:09:02;19.37;;;12.20;;
34035;SDS011;63481;52.588;22.472;2022-12-05T04:09:58;21.10;;;12.87;;
34035;SDS011;63481;52.588;22.472;2022-12-05T04:10:52;20.33;;;12.70;;
34035;SDS011;63481;52.588;22.472;2022-12-05T04:11:44;19.83;;;13.67;;
34035;SDS011;63481;52.588;22.472;2022-12-05T04:12:37;21.17;;;13.17;;
34035;SDS011;63481;52.588;22.472;2022-12-05T04:13:40;20.53;;;14.13;;
34035;SDS011;63481;52.588;22.472;2022-12-05T04:15:28;21.33;;;15.83;;
34035;SDS011;63481;52.588;22.472;2022-12-05T04:18:43;19.60;;;14.10;;
34035;SDS011;63481;52.588;22.472;2022-12-05T04:20:53;20.87;;;13.67;;
34035;SDS011;63481;52.588;22.472;2022-12-05T04:22:04;22.40;;;15.08;;
34035;SDS011;63481;52.588;22.472;2022-12-05T04:22:55;24.85;;;16.02;;
34035;SDS011;63481;52.588;22.472;2022-12-05T04:23:46;20.97;;;15.30;;
34035;SDS011;63481;52.588;22.472;2022-12-05T04:24:39;22.87;;;15.70;;
34035;SDS011;63481;52.588;22.472;2022-12-05T04:25:44;22.02;;;14.65;;
34035;SDS011;63481;52.588;22.472;2022-12-05T04:26:30;23.17;;;15.80;;
34035;SDS011;63481;52.588;22.472;2022-12-05T04:27:24;18.80;;;10.87;;
34035;SDS011;63481;52.588;22.472;2022-12-05T04:28:31;21.10;;;11.80;;
34035;SDS011;63481;52.588;22.472;2022-12-05T04:29:28;21.00;;;14.47;;
34035;SDS011;63481;52.588;22.472;2022-12-05T04:30:22;21.17;;;12.60;;
34035;SDS011;63481;52.588;22.472;2022-12-05T04:31:24;21.20;;;14.40;;
34035;SDS011;63481;52.588;22.472;2022-12-05T04:32:16;20.53;;;15.23;;
34035;SDS011;63481;52.588;22.472;2022-12-05T04:33:14;19.80;;;13.97;;
34035;SDS011;63481;52.588;22.472;2022-12-05T04:34:07;21.90;;;15.78;;
34035;SDS011;63481;52.588;22.472;2022-12-05T04:35:02;20.62;;;15.25;;
34035;SDS011;63481;52.588;22.472;2022-12-05T04:37:01;20.23;;;14.17;;
34035;SDS011;63481;52.588;22.472;2022-12-05T04:37:55;22.50;;;14.38;;
34035;SDS011;63481;52.588;22.472;2022-12-05T04:38:52;19.13;;;11.90;;
34035;SDS011;63481;52.588;22.472;2022-12-05T04:39:56;22.58;;;13.55;;
34035;SDS011;63481;52.588;22.472;2022-12-05T04:40:48;22.67;;;13.50;;
34035;SDS011;63481;52.588;22.472;2022-12-05T04:41:50;24.83;;;13.77;;
34035;SDS011;63481;52.588;22.472;2022-12-05T04:42:43;26.40;;;15.03;;
34035;SDS011;63481;52.588;22.472;2022-12-05T04:43:38;27.73;;;14.97;;
34035;SDS011;63481;52.588;22.472;2022-12-05T04:44:33;24.50;;;15.03;;
34035;SDS011;63481;52.588;22.472;2022-12-05T04:45:28;26.07;;;16.03;;
34035;SDS011;63481;52.588;22.472;2022-12-05T04:46:20;27.23;;;18.17;;
34035;SDS011;63481;52.588;22.472;2022-12-05T04:47:12;31.43;;;17.60;;
34035;SDS011;63481;52.588;22.472;2022-12-05T04:48:07;26.30;;;15.10;;
34035;SDS011;63481;52.588;22.472;2022-12-05T04:49:03;28.83;;;15.53;;
34035;SDS011;63481;52.588;22.472;2022-12-05T04:49:55;27.57;;;17.03;;
34035;SDS011;63481;52.588;22.472;2022-12-05T04:50:47;25.80;;;14.90;;
34035;SDS011;63481;52.588;22.472;2022-12-05T04:51:40;26.77;;;16.27;;
34035;SDS011;63481;52.588;22.472;2022-12-05T04:52:31;27.07;;;14.27;;
34035;SDS011;63481;52.588;22.472;2022-12-05T04:53:24;24.17;;;14.43;;
34035;SDS011;63481;52.588;22.472;2022-12-05T04:54:16;28.20;;;17.33;;
34035;SDS011;63481;52.588;22.472;2022-12-05T04:55:12;30.67;;;17.50;;
34035;SDS011;63481;52.588;22.472;2022-12-05T04:56:06;23.30;;;12.93;;
34035;SDS011;63481;52.588;22.472;2022-12-05T04:58:26;23.60;;;16.17;;
34035;SDS011;63481;52.588;22.472;2022-12-05T04:59:18;25.27;;;16.33;;
34035;SDS011;63481;52.588;22.472;2022-12-05T05:00:08;24.70;;;14.10;;
34035;SDS011;63481;52.588;22.472;2022-12-05T05:02:07;26.00;;;17.33;;
34035;SDS011;63481;52.588;22.472;2022-12-05T05:03:12;22.15;;;13.53;;
34035;SDS011;63481;52.588;22.472;2022-12-05T05:04:57;22.65;;;14.73;;
34035;SDS011;63481;52.588;22.472;2022-12-05T05:05:51;24.52;;;15.60;;
34035;SDS011;63481;52.588;22.472;2022-12-05T05:06:44;25.73;;;15.60;;
34035;SDS011;63481;52.588;22.472;2022-12-05T05:07:41;26.23;;;15.58;;
34035;SDS011;63481;52.588;22.472;2022-12-05T05:08:33;24.60;;;13.55;;
34035;SDS011;63481;52.588;22.472;2022-12-05T05:09:24;24.95;;;16.40;;
34035;SDS011;63481;52.588;22.472;2022-12-05T05:10:15;25.17;;;14.53;;
34035;SDS011;63481;52.588;22.472;2022-12-05T05:12:02;25.17;;;15.77;;
34035;SDS011;63481;52.588;22.472;2022-12-05T05:12:53;26.30;;;18.27;;
34035;SDS011;63481;52.588;22.472;2022-12-05T05:13:43;22.80;;;13.58;;
34035;SDS011;63481;52.588;22.472;2022-12-05T05:14:33;27.05;;;16.57;;
34035;SDS011;63481;52.588;22.472;2022-12-05T05:15:23;24.92;;;17.05;;
34035;SDS011;63481;52.588;22.472;2022-12-05T05:16:15;27.65;;;18.75;;
34035;SDS011;63481;52.588;22.472;2022-12-05T05:17:06;25.23;;;14.80;;
34035;SDS011;63481;52.588;22.472;2022-12-05T05:17:56;27.73;;;15.53;;
34035;SDS011;63481;52.588;22.472;2022-12-05T05:18:47;29.15;;;18.02;;
34035;SDS011;63481;52.588;22.472;2022-12-05T05:19:38;25.63;;;14.50;;
34035;SDS011;63481;52.588;22.472;2022-12-05T05:20:28;23.12;;;12.55;;
34035;SDS011;63481;52.588;22.472;2022-12-05T05:21:19;24.27;;;16.35;;
34035;SDS011;63481;52.588;22.472;2022-12-05T05:22:12;24.20;;;16.30;;
34035;SDS011;63481;52.588;22.472;2022-12-05T05:23:02;25.60;;;16.50;;
34035;SDS011;63481;52.588;22.472;2022-12-05T05:23:52;25.70;;;15.75;;
34035;SDS011;63481;52.588;22.472;2022-12-05T05:24:42;27.55;;;14.95;;
34035;SDS011;63481;52.588;22.472;2022-12-05T05:25:33;21.17;;;11.95;;
34035;SDS011;63481;52.588;22.472;2022-12-05T05:26:23;25.75;;;15.75;;
34035;SDS011;63481;52.588;22.472;2022-12-05T05:27:14;24.35;;;14.13;;
34035;SDS011;63481;52.588;22.472;2022-12-05T05:28:04;21.17;;;11.43;;
34035;SDS011;63481;52.588;22.472;2022-12-05T05:28:56;26.55;;;14.20;;
34035;SDS011;63481;52.588;22.472;2022-12-05T05:29:46;23.98;;;15.03;;
34035;SDS011;63481;52.588;22.472;2022-12-05T05:30:37;26.02;;;14.80;;
34035;SDS011;63481;52.588;22.472;2022-12-05T05:31:27;25.92;;;14.07;;
34035;SDS011;63481;52.588;22.472;2022-12-05T05:32:17;24.10;;;16.23;;
34035;SDS011;63481;52.588;22.472;2022-12-05T05:33:07;29.12;;;16.80;;
34035;SDS011;63481;52.588;22.472;2022-12-05T05:33:58;26.37;;;17.10;;
34035;SDS011;63481;52.588;22.472;2022-12-05T05:34:48;25.00;;;16.83;;
34035;SDS011;63481;52.588;22.472;2022-12-05T05:35:38;27.80;;;15.00;;
34035;SDS011;63481;52.588;22.472;2022-12-05T05:36:29;24.37;;;16.93;;
34035;SDS011;63481;52.588;22.472;2022-12-05T05:37:19;26.45;;;19.02;;
34035;SDS011;63481;52.588;22.472;2022-12-05T05:38:09;24.50;;;14.47;;
34035;SDS011;63481;52.588;22.472;2022-12-05T05:38:59;27.82;;;17.52;;
34035;SDS011;63481;52.588;22.472;2022-12-05T05:39:50;25.77;;;15.88;;
34035;SDS011;63481;52.588;22.472;2022-12-05T05:40:46;25.27;;;15.78;;
34035;SDS011;63481;52.588;22.472;2022-12-05T05:41:37;23.00;;;14.37;;
34035;SDS011;63481;52.588;22.472;2022-12-05T05:42:27;26.02;;;15.43;;
34035;SDS011;63481;52.588;22.472;2022-12-05T05:43:17;22.50;;;13.45;;
34035;SDS011;63481;52.588;22.472;2022-12-05T05:44:57;25.68;;;15.23;;
34035;SDS011;63481;52.588;22.472;2022-12-05T05:45:47;26.45;;;18.23;;
34035;SDS011;63481;52.588;22.472;2022-12-05T05:46:37;24.12;;;16.45;;
34035;SDS011;63481;52.588;22.472;2022-12-05T05:48:18;21.17;;;12.33;;
34035;SDS011;63481;52.588;22.472;2022-12-05T05:49:11;27.13;;;14.20;;
34035;SDS011;63481;52.588;22.472;2022-12-05T05:50:00;27.55;;;15.05;;
34035;SDS011;63481;52.588;22.472;2022-12-05T05:50:50;24.80;;;16.05;;
34035;SDS011;63481;52.588;22.472;2022-12-05T05:51:40;24.18;;;14.73;;